Flight Track Log - Related Links

Times and Time Zones

All times are in EDT time to prevent confusion due to time zone crossing. See the COA1502 flight status page for this flight to view local times or setup timezone preferences in your user account.


Time Position Orientation Groundspeed Altitude Reporting Facility
EDT Latitude Longitude Course Direction KTS MPH feet Rate Location/Type
Wed 08:29:39 PM 40.6500 -74.1833 246° West 195 224 1,500  Level New York TRACON
Wed 08:30:24 PM 40.6300 -74.2192 287° West 34,000 1,778 Climbing New York Center
Wed 08:30:33 PM 40.6333 -74.2333 291° West 229 264 3,100 -29,586 Descending New York TRACON
Wed 08:31:22 PM 40.6508 -74.2942 267° West 229 264 5,400 2,900 Climbing New York Center
Wed 08:31:33 PM 40.6500 -74.3167 293° West 231 266 6,000 2,361 Climbing New York TRACON
Wed 08:32:23 PM 40.6692 -74.3772 309° West 252 290 7,800 3,100 Climbing New York Center
Wed 08:32:33 PM 40.6833 -74.4000 279° West 255 293 9,100 2,754 Climbing New York TRACON
Wed 08:33:24 PM 40.6931 -74.4797 294° West 253 291 10,600 2,066 Climbing New York Center
Wed 08:33:34 PM 40.7000 -74.5000 280° West 268 308 11,200 1,967 Climbing New York TRACON
Wed 08:34:25 PM 40.7089 -74.5653 284° West 281 323 12,600 2,037 Climbing New York Center
Wed 08:35:23 PM 40.7303 -74.6761 284° West 294 338 14,900 2,237 Climbing New York Center
Wed 08:36:23 PM 40.7517 -74.7869 283° West 306 352 17,000 1,261 Climbing New York Center
Wed 08:37:22 PM 40.7725 -74.9086 284° West 323 372 17,400 1,350 Climbing New York Center
Wed 08:38:23 PM 40.7953 -75.0281 276° West 329 379 19,700 2,033 Climbing New York Center
Wed 08:39:23 PM 40.8053 -75.1519 255° West 339 390 21,500 1,700 Climbing New York Center
Wed 08:40:23 PM 40.7797 -75.2792 255° West 344 396 23,100 1,550 Climbing New York Center
Wed 08:41:23 PM 40.7517 -75.4142 257° West 365 420 24,600 5,450 Climbing New York Center
Wed 08:42:23 PM 40.7297 -75.5442 255° West 370 426 34,000 1,350 Climbing New York Center
Wed 08:43:23 PM 40.7011 -75.6817 254° West 381 438 27,300 -2,777 Descending New York Center
Wed 08:44:24 PM 40.6700 -75.8247 256° West 392 451 28,400 1,041 Climbing New York Center
Wed 08:45:24 PM 40.6403 -75.9864 280° West 411 473 29,400 1,000 Climbing New York Center
Wed 08:46:24 PM 40.6606 -76.1386 280° West 411 473 30,400 950 Climbing New York Center
Wed 08:47:24 PM 40.6806 -76.2878 280° West 417 480 31,300 800 Climbing New York Center
Wed 08:48:24 PM 40.7006 -76.4428 277° West 429 494 32,000 1,017 Climbing New York Center
Wed 08:49:22 PM 40.7142 -76.5892 280° West 429 494 33,300 1,017 Climbing New York Center
Wed 08:50:22 PM 40.7356 -76.7444 279° West 424 488 34,000 350 Climbing New York Center
Wed 08:51:22 PM 40.7531 -76.8939 280° West 424 488 34,000  Level New York Center
Wed 08:52:22 PM 40.7722 -77.0436 278° West 419 482 34,000  Level New York Center
Wed 08:53:22 PM 40.7892 -77.1958 279° West 419 482 34,000  Level New York Center
Wed 08:54:22 PM 40.8033 -77.3178 275° West 419 482 34,000  Level New York Center
Wed 08:54:47 PM 40.8086 -77.3925 278° West 421 484 34,000  Level Cleveland Center
Wed 08:55:47 PM 40.8250 -77.5428 278° West 416 479 34,000  Level Cleveland Center
Wed 08:56:47 PM 40.8417 -77.7011 278° West 426 490 34,000  Level Cleveland Center
Wed 08:57:47 PM 40.8581 -77.8542 278° West 426 490 34,000  Level Cleveland Center
Wed 08:58:47 PM 40.8742 -78.0100 279° West 426 490 34,000  Level Cleveland Center
Wed 08:59:47 PM 40.8922 -78.1658 281° West 426 490 34,000  Level Cleveland Center
Wed 09:00:47 PM 40.9142 -78.3217 277° West 426 490 34,000  Level Cleveland Center
Wed 09:01:46 PM 40.9275 -78.4753 277° West 426 490 34,000  Level Cleveland Center
Wed 09:02:47 PM 40.9428 -78.6314 277° West 426 490 34,000  Level Cleveland Center
Wed 09:03:47 PM 40.9578 -78.7850 277° West 426 490 34,000  Level Cleveland Center
Wed 09:04:46 PM 40.9725 -78.9386 277° West 426 490 34,000  Level Cleveland Center
Wed 09:05:47 PM 40.9872 -79.0894 276° West 426 490 34,000  Level Cleveland Center
Wed 09:06:47 PM 40.9994 -79.2433 277° West 426 490 34,000  Level Cleveland Center
Wed 09:07:47 PM 41.0136 -79.3969 277° West 426 490 34,000  Level Cleveland Center
Wed 09:08:47 PM 41.0278 -79.5456 276° West 421 484 34,000  Level Cleveland Center
Wed 09:09:47 PM 41.0394 -79.6967 278° West 421 484 34,000  Level Cleveland Center
Wed 09:10:47 PM 41.0550 -79.8481 276° West 421 484 34,000  Level Cleveland Center
Wed 09:11:47 PM 41.0664 -79.9992 277° West 421 484 34,000  Level Cleveland Center
Wed 09:12:47 PM 41.0772 -80.1231 276° West 427 491 34,000  Level Cleveland Center
Wed 09:13:47 PM 41.0925 -80.3075 276° West 427 491 34,000  Level Cleveland Center
Wed 09:14:46 PM 41.1053 -80.4592 276° West 427 491 34,000  Level Cleveland Center
Wed 09:15:47 PM 41.1178 -80.6106 276° West 427 491 34,000  Level Cleveland Center
Wed 09:16:47 PM 41.1322 -80.7817 276° West 427 491 34,000  Level Cleveland Center
Wed 09:17:47 PM 41.1444 -80.9306 276° West 427 491 34,000  Level Cleveland Center
Wed 09:18:47 PM 41.1564 -81.0850 276° West 422 486 34,000  Level Cleveland Center
Wed 09:19:47 PM 41.1681 -81.2369 276° West 422 486 34,000  Level Cleveland Center
Wed 09:20:47 PM 41.1794 -81.3914 274° West 422 486 34,000  Level Cleveland Center
Wed 09:21:47 PM 41.1869 -81.5239 276° West 422 486 34,000  Level Cleveland Center
Wed 09:22:47 PM 41.1981 -81.6758 275° West 422 486 34,000  Level Cleveland Center
Wed 09:23:47 PM 41.2089 -81.8278 274° West 427 491 34,000  Level Cleveland Center
Wed 09:24:47 PM 41.2175 -81.9853 276° West 427 491 34,000  Level Cleveland Center
Wed 09:25:47 PM 41.2319 -82.1569 275° West 427 491 34,000  Level Cleveland Center
Wed 09:26:47 PM 41.2422 -82.3089 275° West 427 491 34,000  Level Cleveland Center
Wed 09:27:47 PM 41.2525 -82.4639 275° West 422 486 34,000  Level Cleveland Center
Wed 09:28:47 PM 41.2622 -82.6161 274° West 428 493 34,000  Level Cleveland Center
Wed 09:29:46 PM 41.2700 -82.7683 276° West 423 487 34,000  Level Cleveland Center
Wed 09:30:47 PM 41.2797 -82.9014 274° West 418 481 34,000  Level Cleveland Center
Wed 09:31:47 PM 41.2869 -83.0536 275° West 418 481 34,000  Level Cleveland Center
Wed 09:32:47 PM 41.2978 -83.2228 274° West 418 481 34,000  Level Cleveland Center
Wed 09:33:47 PM 41.3050 -83.3556 275° West 423 487 34,000  Level Cleveland Center
Wed 09:34:47 PM 41.3139 -83.5053 276° West 416 479 34,000  Level Cleveland Center
Wed 09:35:47 PM 41.3247 -83.6525 273° West 411 473 34,000  Level Cleveland Center
Wed 09:36:47 PM 41.3308 -83.8019 274° West 405 466 34,000  Level Cleveland Center
Wed 09:37:47 PM 41.3392 -83.9464 273° West 405 466 34,000  Level Cleveland Center
Wed 09:38:47 PM 41.3467 -84.1128 276° West 405 466 34,000  Level Cleveland Center
Wed 09:39:47 PM 41.3572 -84.2461 273° West 405 466 34,000  Level Cleveland Center
Wed 09:40:04 PM 41.3592 -84.2975 274° West 397 457 34,000  Level Chicago Center
Wed 09:41:04 PM 41.3675 -84.4436 273° West 386 444 34,000  Level Chicago Center
Wed 09:42:04 PM 41.3739 -84.5925 273° West 386 444 34,000  Level Chicago Center
Wed 09:43:04 PM 41.3797 -84.7361 273° West 391 450 34,000  Level Chicago Center
Wed 09:44:04 PM 41.3858 -84.8853 273° West 397 457 34,000  Level Chicago Center
Wed 09:45:04 PM 41.3914 -85.0317 274° West 402 463 34,000  Level Chicago Center
Wed 09:46:04 PM 41.3983 -85.1614 273° West 402 463 34,000  Level Chicago Center
Wed 09:47:04 PM 41.4033 -85.3050 272° West 402 463 34,000  Level Chicago Center
Wed 09:48:04 PM 41.4064 -85.4489 275° West 397 457 34,000  Level Chicago Center
Wed 09:49:04 PM 41.4158 -85.6061 272° West 397 457 34,000  Level Chicago Center
Wed 09:50:04 PM 41.4203 -85.7469 272° West 397 457 34,000  Level Chicago Center
Wed 09:51:04 PM 41.4247 -85.8908 272° West 392 451 34,000  Level Chicago Center
Wed 09:52:04 PM 41.4289 -86.0292 273° West 380 437 34,000  Level Chicago Center
Wed 09:53:04 PM 41.4347 -86.1675 272° West 380 437 34,000  Level Chicago Center
Wed 09:54:04 PM 41.4386 -86.3058 273° West 380 437 34,000  Level Chicago Center
Wed 09:55:04 PM 41.4444 -86.4467 271° West 380 437 34,000  Level Chicago Center
Wed 09:56:04 PM 41.4453 -86.5686 272° West 380 437 34,000  Level Chicago Center
Wed 09:57:04 PM 41.4486 -86.7097 271° West 374 430 34,000  Level Chicago Center
Wed 09:58:04 PM 41.4497 -86.8456 273° West 374 430 34,000  Level Chicago Center
Wed 09:59:04 PM 41.4547 -86.9811 273° West 374 430 34,000  Level Chicago Center
Wed 10:00:04 PM 41.4594 -87.1167 271° West 374 430 34,000  Level Chicago Center
Wed 10:01:04 PM 41.4619 -87.2550 273° West 374 430 34,000  Level Chicago Center
Wed 10:02:04 PM 41.4667 -87.3908 272° West 374 430 34,000  Level Chicago Center
Wed 10:03:04 PM 41.4708 -87.5264 271° West 374 430 34,000  Level Chicago Center
Wed 10:04:04 PM 41.4731 -87.6678 272° West 374 430 34,000  Level Chicago Center
Wed 10:05:04 PM 41.4769 -87.8006 271° West 374 430 34,000  Level Chicago Center
Wed 10:06:04 PM 41.4789 -87.9531 272° West 366 421 34,000  Level Chicago Center
Wed 10:07:04 PM 41.4825 -88.0806 272° West 361 415 34,000  Level Chicago Center
Wed 10:08:04 PM 41.4861 -88.2217 271° West 367 422 34,000  Level Chicago Center
Wed 10:09:04 PM 41.4872 -88.3547 271° West 372 428 34,000  Level Chicago Center
Wed 10:10:04 PM 41.4883 -88.4767 272° West 372 428 34,000  Level Chicago Center
Wed 10:11:04 PM 41.4914 -88.6097 270° West 366 421 34,000  Level Chicago Center
Wed 10:12:04 PM 41.4922 -88.7456 272° West 366 421 34,000  Level Chicago Center
Wed 10:13:04 PM 41.4950 -88.8842 271° West 366 421 34,000  Level Chicago Center
Wed 10:14:04 PM 41.4975 -89.0172 269° West 366 421 34,000  Level Chicago Center
Wed 10:15:04 PM 41.4956 -89.1531 270° West 366 421 34,000  Level Chicago Center
Wed 10:16:04 PM 41.4958 -89.2972 271° West 366 421 34,000  Level Chicago Center
Wed 10:17:04 PM 41.4981 -89.4303 270° West 366 421 34,000  Level Chicago Center
Wed 10:18:04 PM 41.4978 -89.5633 270° West 366 421 34,000  Level Chicago Center
Wed 10:19:04 PM 41.4975 -89.6992 270° West 366 421 34,000  Level Chicago Center
Wed 10:20:04 PM 41.4969 -89.8350 271° West 366 421 34,000  Level Chicago Center
Wed 10:21:04 PM 41.4983 -89.9681 271° West 366 421 34,000  Level Chicago Center
Wed 10:22:04 PM 41.4997 -90.1039 268° West 366 421 34,000  Level Chicago Center
Wed 10:23:04 PM 41.4967 -90.2369 270° West 366 421 34,000  Level Chicago Center
Wed 10:24:04 PM 41.4975 -90.3728 269° West 366 421 34,000  Level Chicago Center
Wed 10:25:04 PM 41.4964 -90.5086 270° West 366 421 34,000  Level Chicago Center
Wed 10:26:04 PM 41.4969 -90.6444 268° West 366 421 34,000  Level Chicago Center
Wed 10:27:04 PM 41.4933 -90.7803 269° West 366 421 34,000  Level Chicago Center
Wed 10:28:04 PM 41.4914 -90.9133 270° West 366 421 34,000  Level Chicago Center
Wed 10:29:04 PM 41.4917 -91.0519 269° West 366 421 34,000  Level Chicago Center
Wed 10:30:04 PM 41.4894 -91.1878 270° West 366 421 34,000  Level Chicago Center
Wed 10:31:04 PM 41.4894 -91.3208 269° West 366 421 34,000  Level Chicago Center
Wed 10:32:04 PM 41.4872 -91.4372 269° West 361 415 34,000  Level Chicago Center
Wed 10:33:04 PM 41.4847 -91.5703 269° West 361 415 34,000  Level Chicago Center
Wed 10:34:04 PM 41.4822 -91.7031 270° West 366 421 34,000  Level Chicago Center
Wed 10:35:04 PM 41.4817 -91.8306 267° West 361 415 34,000  Level Chicago Center
Wed 10:36:04 PM 41.4764 -91.9636 270° West 361 415 34,000  Level Chicago Center
Wed 10:37:04 PM 41.4756 -92.0964 269° West 366 421 34,000  Level Chicago Center
Wed 10:38:04 PM 41.4742 -92.2322 268° West 366 421 34,000  Level Chicago Center
Wed 10:39:04 PM 41.4708 -92.3653 269° West 366 421 34,000  Level Chicago Center
Wed 10:40:04 PM 41.4692 -92.5008 269° West 366 421 34,000  Level Chicago Center
Wed 10:41:04 PM 41.4675 -92.6367 269° West 366 421 34,000  Level Chicago Center
Wed 10:42:04 PM 41.4656 -92.7750 268° West 359 413 34,000  Level Chicago Center
Wed 10:43:04 PM 41.4617 -92.9050 267° West 364 419 34,000  Level Chicago Center
Wed 10:43:27 PM 41.4569 -92.9603 267° West 34,000  Level Minneapolis Center
Wed 10:44:27 PM 41.4533 -93.1042 267° West 34,000  Level Minneapolis Center
Wed 10:45:27 PM 41.4494 -93.2314 266° West 34,000  Level Minneapolis Center
Wed 10:49:28 PM 41.4222 -93.7869 262° West 361 415 34,000  Level Minneapolis Center
Wed 10:50:27 PM 41.4069 -93.9250 262° West 373 429 34,000  Level Minneapolis Center
Wed 10:51:27 PM 41.3919 -94.0603 261° West 379 436 34,000  Level Minneapolis Center
Wed 10:52:28 PM 41.3764 -94.1956 262° West 379 436 34,000  Level Minneapolis Center
Wed 10:53:27 PM 41.3628 -94.3306 260° West 374 430 34,000  Level Minneapolis Center
Wed 10:54:28 PM 41.3450 -94.4656 262° West 368 423 34,000  Level Minneapolis Center
Wed 10:55:27 PM 41.3311 -94.6006 260° West 368 423 34,000  Level Minneapolis Center
Wed 10:56:27 PM 41.3131 -94.7356 261° West 368 423 34,000  Level Minneapolis Center
Wed 10:57:27 PM 41.2969 -94.8703 261° West 368 423 34,000  Level Minneapolis Center
Wed 10:58:27 PM 41.2806 -95.0022 262° West 368 423 34,000  Level Minneapolis Center
Wed 10:59:28 PM 41.2658 -95.1369 261° West 368 423 34,000  Level Minneapolis Center
Wed 11:00:27 PM 41.2492 -95.2717 260° West 368 423 34,000  Level Minneapolis Center
Wed 11:01:27 PM 41.2322 -95.4061 260° West 368 423 34,000  Level Minneapolis Center
Wed 11:02:28 PM 41.2131 -95.5433 264° West 368 423 34,000  Level Minneapolis Center
Wed 11:03:27 PM 41.2022 -95.6753 260° West 368 423 34,000  Level Minneapolis Center
Wed 11:04:27 PM 41.1847 -95.8122 263° West 374 430 34,000  Level Minneapolis Center
Wed 11:05:28 PM 41.1711 -95.9494 259° West 374 430 34,000  Level Minneapolis Center
Wed 11:06:28 PM 41.1514 -96.0808 261° West 369 425 34,000  Level Minneapolis Center
Wed 11:07:27 PM 41.1356 -96.2178 256° West 369 425 34,000  Level Minneapolis Center
Wed 11:08:27 PM 41.1117 -96.3431 260° West 369 425 34,000  Level Minneapolis Center
Wed 11:09:27 PM 41.0933 -96.4797 260° West 375 432 34,000  Level Minneapolis Center
Wed 11:10:28 PM 41.0747 -96.6164 261° West 375 432 34,000  Level Minneapolis Center
Wed 11:11:28 PM 41.0583 -96.7475 259° West 375 432 34,000  Level Minneapolis Center
Wed 11:12:27 PM 41.0375 -96.8864 259° West 375 432 34,000  Level Minneapolis Center
Wed 11:13:27 PM 41.0186 -97.0200 259° West 375 432 34,000  Level Minneapolis Center
Wed 11:14:27 PM 40.9994 -97.1564 261° West 375 432 34,000  Level Minneapolis Center
Wed 11:15:27 PM 40.9822 -97.2953 261° West 375 432 34,000  Level Minneapolis Center
Wed 11:16:27 PM 40.9669 -97.4261 258° West 380 437 34,000  Level Minneapolis Center
Wed 11:17:27 PM 40.9453 -97.5619 259° West 380 437 34,000  Level Minneapolis Center
Wed 11:18:27 PM 40.9256 -97.6978 259° West 380 437 34,000  Level Minneapolis Center
Wed 11:19:27 PM 40.9056 -97.8336 259° West 380 437 34,000  Level Minneapolis Center
Wed 11:20:27 PM 40.8853 -97.9719 259° West 385 443 34,000  Level Minneapolis Center
Wed 11:21:27 PM 40.8653 -98.1047 259° West 390 449 34,000  Level Minneapolis Center
Wed 11:22:28 PM 40.8447 -98.2431 258° West 385 443 34,000  Level Minneapolis Center
Wed 11:22:46 PM 40.8364 -98.2961 257° West 384 442 34,000  Level Denver Center
Wed 11:23:45 PM 40.8128 -98.4336 259° West 379 436 34,000  Level Denver Center
Wed 11:24:45 PM 40.7931 -98.5706 258° West 379 436 34,000  Level Denver Center
Wed 11:25:45 PM 40.7711 -98.7078 259° West 379 436 34,000  Level Denver Center
Wed 11:26:45 PM 40.7522 -98.8306 259° West 379 436 34,000  Level Denver Center
Wed 11:27:45 PM 40.7319 -98.9675 259° West 379 436 34,000  Level Denver Center
Wed 11:28:45 PM 40.7114 -99.1014 258° West 379 436 34,000  Level Denver Center
Wed 11:29:45 PM 40.6889 -99.2408 257° West 379 436 34,000  Level Denver Center
Wed 11:30:45 PM 40.6661 -99.3750 259° West 379 436 34,000  Level Denver Center
Wed 11:31:46 PM 40.6450 -99.5114 259° West 379 436 34,000  Level Denver Center
Wed 11:32:45 PM 40.6242 -99.6478 257° West 379 436 34,000  Level Denver Center
Wed 11:33:45 PM 40.6006 -99.7817 259° West 379 436 34,000  Level Denver Center
Wed 11:34:45 PM 40.5781 -99.9344 258° West 379 436 34,000  Level Denver Center
Wed 11:35:45 PM 40.5564 -100.0680 258° West 379 436 34,000  Level Denver Center
Wed 11:36:46 PM 40.5361 -100.1900 256° West 379 436 34,000  Level Denver Center
Wed 11:37:45 PM 40.5083 -100.3350 259° West 379 436 34,000  Level Denver Center
Wed 11:38:45 PM 40.4883 -100.4680 258° West 379 436 34,000  Level Denver Center
Wed 11:39:45 PM 40.4658 -100.6010 256° West 379 436 34,000  Level Denver Center
Wed 11:40:45 PM 40.4428 -100.7200 257° West 379 436 34,000  Level Denver Center
Wed 11:41:45 PM 40.4200 -100.8510 256° West 379 436 34,000  Level Denver Center
Wed 11:42:45 PM 40.3917 -100.9970 258° West 379 436 34,000  Level Denver Center
Wed 11:43:45 PM 40.3706 -101.1280 256° West 379 436 34,000  Level Denver Center
Wed 11:44:45 PM 40.3453 -101.2570 256° West 379 436 34,000  Level Denver Center
Wed 11:45:45 PM 40.3214 -101.3790 256° West 379 436 34,000  Level Denver Center
Wed 11:46:45 PM 40.2944 -101.5230 257° West 379 436 34,000  Level Denver Center
Wed 11:47:45 PM 40.2708 -101.6560 255° West 379 436 34,000  Level Denver Center
Wed 11:48:45 PM 40.2447 -101.7830 257° West 379 436 34,000  Level Denver Center
Wed 11:49:45 PM 40.2225 -101.9060 255° West 379 436 34,000  Level Denver Center
Wed 11:50:45 PM 40.1928 -102.0520 257° West 379 436 34,000  Level Denver Center
Wed 11:51:45 PM 40.1686 -102.1850 254° West 379 436 34,000  Level Denver Center
Wed 11:52:45 PM 40.1400 -102.3170 256° West 385 443 34,000  Level Denver Center
Wed 11:53:45 PM 40.1172 -102.4380 256° West 385 443 34,000  Level Denver Center
Wed 11:54:45 PM 40.0892 -102.5860 258° West 385 443 34,000  Level Denver Center
Wed 11:55:45 PM 40.0664 -102.7230 256° West 385 443 34,000 150 Level Denver Center
Wed 11:56:45 PM 40.0414 -102.8520 255° West 380 437 34,300 750 Climbing Denver Center
Wed 11:57:45 PM 40.0142 -102.9840 254° West 380 437 35,500 850 Climbing Denver Center
Wed 11:58:45 PM 39.9867 -103.1130 255° West 379 436 36,000 250 Climbing Denver Center
Wed 11:59:45 PM 39.9592 -103.2470 256° West 384 442 36,000  Level Denver Center
Thu 12:00:45 AM 39.9339 -103.3830 254° West 384 442 36,000  Level Denver Center
Thu 12:01:45 AM 39.9039 -103.5170 256° West 384 442 36,000  Level Denver Center
Thu 12:02:45 AM 39.8781 -103.6510 253° West 384 442 36,000  Level Denver Center
Thu 12:03:52 AM 39.8481 -103.7820 255° West 384 442 36,000  Level Denver Center
Thu 12:04:57 AM 39.8161 -103.9400 254° West 384 442 36,000  Level Denver Center
Thu 12:05:57 AM 39.7875 -104.0710 254° West 384 442 36,000  Level Denver Center
Thu 12:06:57 AM 39.7589 -104.2040 253° West 384 442 36,000  Level Denver Center
Thu 12:07:57 AM 39.7319 -104.3210 254° West 384 442 36,000  Level Denver Center
Thu 12:08:57 AM 39.7011 -104.4570 256° West 392 451 36,000  Level Denver Center
Thu 12:09:57 AM 39.6764 -104.5900 253° West 392 451 36,000  Level Denver Center
Thu 12:10:57 AM 39.6411 -104.7420 254° West 397 457 36,000  Level Denver Center
Thu 12:11:57 AM 39.6097 -104.8800 254° West 403 464 36,000  Level Denver Center
Thu 12:12:57 AM 39.5803 -105.0160 254° West 398 458 36,000  Level Denver Center
Thu 12:13:57 AM 39.5506 -105.1480 254° West 393 452 36,000  Level Denver Center
Thu 12:14:57 AM 39.5228 -105.2700 254° West 393 452 36,000  Level Denver Center
Thu 12:15:57 AM 39.4928 -105.4020 253° West 393 452 36,000  Level Denver Center
Thu 12:16:57 AM 39.4606 -105.5370 254° West 393 452 36,000  Level Denver Center
Thu 12:17:57 AM 39.4303 -105.6720 254° West 398 458 36,000  Level Denver Center
Thu 12:18:57 AM 39.4000 -105.8070 252° West 398 458 36,000  Level Denver Center
Thu 12:19:57 AM 39.3672 -105.9410 253° West 398 458 36,000  Level Denver Center
Thu 12:20:57 AM 39.3364 -106.0730 257° West 398 458 36,000  Level Denver Center
Thu 12:21:57 AM 39.3119 -106.2070 253° West 398 458 36,000  Level Denver Center
Thu 12:22:57 AM 39.2744 -106.3610 253° West 398 458 36,000  Level Denver Center
Thu 12:23:57 AM 39.2433 -106.4950 253° West 393 452 36,000  Level Denver Center
Thu 12:24:57 AM 39.2142 -106.6150 252° West 399 459 36,000  Level Denver Center
Thu 12:25:57 AM 39.1825 -106.7440 253° West 399 459 36,000  Level Denver Center
Thu 12:26:57 AM 39.1486 -106.8880 252° West 393 452 36,000  Level Denver Center
Thu 12:27:57 AM 39.1147 -107.0220 254° West 393 452 36,000  Level Denver Center
Thu 12:28:57 AM 39.0892 -107.1390 252° West 383 441 36,000  Level Denver Center
Thu 12:29:57 AM 39.0550 -107.2720 252° West 383 441 36,000  Level Denver Center
Thu 12:30:57 AM 39.0183 -107.4160 253° West 388 447 36,000  Level Denver Center
Thu 12:31:57 AM 38.9858 -107.5520 253° West 388 447 36,000  Level Denver Center
Thu 12:32:57 AM 38.9575 -107.6690 251° West 388 447 36,000  Level Denver Center
Thu 12:33:57 AM 38.9228 -107.8020 253° West 393 452 36,000  Level Denver Center
Thu 12:34:57 AM 38.8875 -107.9480 251° West 393 452 36,000  Level Denver Center
Thu 12:35:57 AM 38.8525 -108.0780 244° Southwest 393 452 36,000  Level Denver Center
Thu 12:36:57 AM 38.8092 -108.1940 245° Southwest 398 458 36,000  Level Denver Center
Thu 12:37:57 AM 38.7633 -108.3210 244° Southwest 398 458 36,000  Level Denver Center
Thu 12:38:57 AM 38.7089 -108.4610 244° Southwest 398 458 36,000  Level Denver Center
Thu 12:39:57 AM 38.6608 -108.5870 243° Southwest 398 458 36,000  Level Denver Center
Thu 12:40:57 AM 38.6125 -108.7100 244° Southwest 398 458 36,000  Level Denver Center
Thu 12:41:57 AM 38.5683 -108.8260 244° Southwest 403 464 36,000  Level Denver Center
Thu 12:42:57 AM 38.5156 -108.9640 243° Southwest 403 464 36,000  Level Denver Center
Thu 12:43:57 AM 38.4647 -109.0930 243° Southwest 403 464 36,000  Level Denver Center
Thu 12:44:57 AM 38.4158 -109.2180 243° Southwest 403 464 36,000  Level Denver Center
Thu 12:45:57 AM 38.3714 -109.3270 244° Southwest 398 458 36,000  Level Denver Center
Thu 12:46:57 AM 38.3178 -109.4680 242° Southwest 404 465 36,000  Level Denver Center
Thu 12:47:57 AM 38.2664 -109.5900 243° Southwest 398 458 36,000  Level Denver Center
Thu 12:48:57 AM 38.2172 -109.7120 242° Southwest 398 458 36,000  Level Denver Center
Thu 12:49:57 AM 38.1725 -109.8210 244° Southwest 398 458 36,000  Level Denver Center
Thu 12:50:57 AM 38.1183 -109.9590 242° Southwest 398 458 36,000  Level Denver Center
Thu 12:51:57 AM 38.0664 -110.0820 244° Southwest 398 458 36,000  Level Denver Center
Thu 12:52:57 AM 38.0186 -110.2070 247° West 398 458 36,000  Level Denver Center
Thu 12:53:57 AM 37.9769 -110.3340 242° Southwest 400 460 36,000  Level Denver Center
Thu 12:54:57 AM 37.9222 -110.4620 242° Southwest 399 459 36,000  Level Denver Center
Thu 12:55:57 AM 37.8744 -110.5750 243° Southwest 399 459 36,000  Level Denver Center
Thu 12:56:57 AM 37.8197 -110.7090 242° Southwest 399 459 36,000  Level Denver Center
Thu 12:57:57 AM 37.7667 -110.8370 243° Southwest 405 466 36,000  Level Denver Center
Thu 12:58:57 AM 37.7161 -110.9600 242° Southwest 405 466 36,000  Level Denver Center
Thu 12:59:57 AM 37.6631 -111.0880 241° Southwest 405 466 36,000  Level Denver Center
Thu 01:00:57 AM 37.6078 -111.2150 245° Southwest 405 466 36,000  Level Denver Center
Thu 01:01:54 AM 37.5633 -111.3380 240° Southwest 416 479 36,000  Level Los Angeles Center
Thu 01:02:54 AM 37.5136 -111.4480 240° Southwest 398 458 36,000  Level Los Angeles Center
Thu 01:03:54 AM 37.4558 -111.5740 237° Southwest 412 474 36,000  Level Los Angeles Center
Thu 01:04:54 AM 37.3936 -111.6950 238° Southwest 419 482 36,000  Level Los Angeles Center
Thu 01:05:54 AM 37.3331 -111.8160 238° Southwest 419 482 36,000  Level Los Angeles Center
Thu 01:06:54 AM 37.2650 -111.9510 236° Southwest 419 482 36,000  Level Los Angeles Center
Thu 01:07:54 AM 37.2022 -112.0690 237° Southwest 419 482 36,000  Level Los Angeles Center
Thu 01:08:54 AM 37.1394 -112.1920 237° Southwest 419 482 36,000  Level Los Angeles Center
Thu 01:09:54 AM 37.0767 -112.3140 237° Southwest 419 482 36,000  Level Los Angeles Center
Thu 01:10:54 AM 37.0136 -112.4370 237° Southwest 424 488 36,000  Level Los Angeles Center
Thu 01:11:54 AM 36.9506 -112.5570 237° Southwest 429 494 36,000  Level Los Angeles Center
Thu 01:12:54 AM 36.8931 -112.6660 236° Southwest 429 494 36,000  Level Los Angeles Center
Thu 01:13:54 AM 36.8297 -112.7830 237° Southwest 421 484 36,000  Level Los Angeles Center
Thu 01:14:54 AM 36.7681 -112.9000 238° Southwest 421 484 36,000  Level Los Angeles Center
Thu 01:15:54 AM 36.7067 -113.0210 236° Southwest 415 478 36,000  Level Los Angeles Center
Thu 01:16:54 AM 36.6447 -113.1370 236° Southwest 415 478 36,000  Level Los Angeles Center
Thu 01:17:54 AM 36.5769 -113.2640 236° Southwest 415 478 36,000  Level Los Angeles Center
Thu 01:18:54 AM 36.5131 -113.3830 235° Southwest 415 478 36,000  Level Los Angeles Center
Thu 01:19:54 AM 36.4528 -113.4910 239° Southwest 420 483 36,000  Level Los Angeles Center
Thu 01:20:54 AM 36.3967 -113.6090 234° Southwest 420 483 36,000  Level Los Angeles Center
Thu 01:21:54 AM 36.3303 -113.7240 235° Southwest 420 483 36,000  Level Los Angeles Center
Thu 01:22:54 AM 36.2636 -113.8420 236° Southwest 420 483 36,000  Level Los Angeles Center
Thu 01:23:54 AM 36.1992 -113.9600 237° Southwest 420 483 36,000  Level Los Angeles Center
Thu 01:24:54 AM 36.1325 -114.0880 236° Southwest 420 483 36,000  Level Los Angeles Center
Thu 01:25:54 AM 36.0675 -114.2070 236° Southwest 420 483 36,000  Level Los Angeles Center
Thu 01:26:54 AM 36.0047 -114.3240 235° Southwest 420 483 36,000  Level Los Angeles Center
Thu 01:27:54 AM 35.9417 -114.4360 236° Southwest 414 476 36,000  Level Los Angeles Center
Thu 01:28:54 AM 35.8806 -114.5480 236° Southwest 414 476 36,000  Level Los Angeles Center
Thu 01:29:54 AM 35.8172 -114.6640 236° Southwest 409 471 36,000  Level Los Angeles Center
Thu 01:30:54 AM 35.7539 -114.7780 236° Southwest 409 471 36,000  Level Los Angeles Center
Thu 01:31:54 AM 35.6925 -114.8890 232° Southwest 404 465 36,000  Level Los Angeles Center
Thu 01:32:54 AM 35.6267 -114.9920 229° Southwest 404 465 36,000  Level Los Angeles Center
Thu 01:33:54 AM 35.5567 -115.0920 230° Southwest 399 459 36,000 -500 Level Los Angeles Center
Thu 01:34:54 AM 35.4867 -115.1930 229° Southwest 394 453 35,000 -1,000 Descending Los Angeles Center
Thu 01:35:54 AM 35.4164 -115.2930 228° Southwest 388 447 34,000 -950 Descending Los Angeles Center
Thu 01:36:54 AM 35.3397 -115.3980 230° Southwest 393 452 33,100 -950 Descending Los Angeles Center
Thu 01:37:54 AM 35.2672 -115.5030 229° Southwest 403 464 32,100 -900 Descending Los Angeles Center
Thu 01:38:54 AM 35.1989 -115.6000 228° Southwest 409 471 31,300 -900 Descending Los Angeles Center
Thu 01:39:54 AM 35.1200 -115.7070 230° Southwest 420 483 30,300 -650 Descending Los Angeles Center
Thu 01:40:54 AM 35.0453 -115.8140 229° Southwest 420 483 30,000 -150 Descending Los Angeles Center
Thu 01:41:54 AM 34.9703 -115.9190 230° Southwest 420 483 30,000  Level Los Angeles Center
Thu 01:42:54 AM 34.8975 -116.0250 227° Southwest 410 472 30,000  Level Los Angeles Center
Thu 01:43:54 AM 34.8181 -116.1290 229° Southwest 410 472 30,000  Level Los Angeles Center
Thu 01:44:54 AM 34.7408 -116.2380 229° Southwest 410 472 30,000  Level Los Angeles Center
Thu 01:45:54 AM 34.6678 -116.3410 229° Southwest 410 472 30,000 -200 Level Los Angeles Center
Thu 01:46:54 AM 34.5903 -116.4490 229° Southwest 415 478 29,600 -700 Descending Los Angeles Center
Thu 01:47:54 AM 34.5169 -116.5500 228° Southwest 410 472 28,600 -1,000 Descending Los Angeles Center
Thu 01:48:54 AM 34.4433 -116.6500 228° Southwest 410 472 27,600 -1,450 Descending Los Angeles Center
Thu 01:49:54 AM 34.3719 -116.7450 229° Southwest 410 472 25,700 -2,000 Descending Los Angeles Center
Thu 01:50:54 AM 34.3025 -116.8430 229° Southwest 397 457 23,600 -2,050 Descending Los Angeles Center
Thu 01:51:54 AM 34.2353 -116.9350 228° Southwest 385 443 21,600 -2,021 Descending Los Angeles Center
Thu 01:52:29 AM 34.2000 -116.9830 227° Southwest 356 410 20,400 -2,000 Descending Southern California TRACON
Thu 01:52:54 AM 34.1700 -117.0220 234° Southwest 373 429 19,600 -2,100 Descending Los Angeles Center
Thu 01:53:29 AM 34.1333 -117.0830 224° Southwest 347 399 18,300 -1,600 Descending Southern California TRACON
Thu 01:53:54 AM 34.1086 -117.1120 247° West 366 421 18,000 -689 Descending Los Angeles Center
Thu 01:54:30 AM 34.0833 -117.1830 227° Southwest 336 387 17,600 -1,000 Descending Southern California TRACON
Thu 01:54:54 AM 34.0597 -117.2140 258° West 347 399 17,000 -1,778 Descending Los Angeles Center
Thu 01:55:24 AM 34.0500 -117.2670 256° West 325 374 16,000 -1,800 Descending Southern California TRACON
Thu 01:55:54 AM 34.0400 -117.3170 263° West 316 364 15,200 -1,909 Descending Los Angeles Center
Thu 01:56:30 AM 34.0333 -117.3830 269° West 310 357 13,900 -1,800 Descending Southern California TRACON
Thu 01:56:54 AM 34.0328 -117.4120 271° West 316 364 13,400 -1,701 Descending Los Angeles Center
Thu 01:57:37 AM 34.0333 -117.4830 252° West 304 350 12,000 -1,800 Descending Southern California TRACON
Thu 01:57:54 AM 34.0256 -117.5120 261° West 316 364 11,600 -1,100 Descending Los Angeles Center
Thu 01:58:37 AM 34.0167 -117.5830 263° West 302 348 10,900 -900 Descending Southern California TRACON
Thu 01:58:54 AM 34.0139 -117.6120 253° West 311 358 10,700 -875 Descending Los Angeles Center
Thu 01:59:25 AM 34.0000 -117.6670 279° West 275 316 10,200 -900 Descending Southern California TRACON
Thu 01:59:54 AM 34.0044 -117.7020 264° West 300 345 9,800 -1,200 Descending Los Angeles Center
Thu 02:00:25 AM 34.0000 -117.7500 264° West 253 291 9,000 -1,300 Descending Southern California TRACON
Thu 02:00:54 AM 33.9969 -117.7850 251° West 274 315 8,500 -1,100 Descending Los Angeles Center
Thu 02:01:25 AM 33.9833 -117.8330 281° West 256 295 7,900 -1,200 Descending Southern California TRACON
Thu 02:01:54 AM 33.9894 -117.8700 261° West 268 308 7,300 -1,200 Descending Los Angeles Center
Thu 02:02:25 AM 33.9833 -117.9170 268° West 248 285 6,700 -900 Descending Southern California TRACON
Thu 02:02:54 AM 33.9822 -117.9500 272° West 257 296 6,400 -800 Descending Los Angeles Center
Thu 02:03:25 AM 33.9833 -118.0000 244° Southwest 226 260 5,900 -800 Descending Southern California TRACON
Thu 02:03:54 AM 33.9725 -118.0270 260° West 246 283 5,600 -627 Descending Los Angeles Center
Thu 02:04:32 AM 33.9667 -118.0670 267° West 224 258 5,200 -700 Descending Southern California TRACON
Thu 02:04:54 AM 33.9653 -118.1000 271° West 232 267 4,900 -1,250 Descending Los Angeles Center
Thu 02:05:44 AM 33.9667 -118.1670 230° Southwest 229 264 3,700 -1,300 Descending Southern California TRACON
Thu 02:05:54 AM 33.9575 -118.1800 260° West 237 273 3,600 -1,347 Descending Los Angeles Center
Thu 02:06:33 AM 33.9500 -118.2330 271° West 205 236 2,600 -1,200 Descending Southern California TRACON
Thu 02:06:54 AM 33.9503 -118.2470 269° West 232 267 2,400 -900 Descending Los Angeles Center
Thu 02:07:33 AM 33.9500 -118.2830 255° West 176 203 1,700 -900 Descending Southern California TRACON
Thu 02:07:54 AM 33.9450 -118.3050 282° West 205 236 1,500 -873 Descending Los Angeles Center
Thu 02:08:28 AM 33.9500 -118.3330 241° Southwest 153 176 900 -800 Descending Southern California TRACON
Thu 02:08:54 AM 33.9400 -118.3550 254° West 177 204 700 -448 Descending Los Angeles Center
Thu 02:09:35 AM 33.9333 -118.3830 278° West 151 174 400 -600 Descending Southern California TRACON
Thu 02:09:54 AM 33.9367 -118.4120 260° West 160 184 100 27,038 Descending Los Angeles Center
Thu 02:10:54 AM 33.9294 -118.4620 263° West 160 184 36,000 17,950 Climbing Los Angeles Center
Thu 02:11:54 AM 33.9244 -118.5120 263° West 160 184 36,000  Level Los Angeles Center

Login

Don't have an account? Register now (free) for customized features, flight alerts, and more!